Terminal Aerodrome Forecast
Issued by NWS Tampa Bay Area, FL

Home | Current Version | Previous Version | Text Only | Print | Product List | Glossary On
Versions: 1 2 3 4 5 6 7 8 9 10 11 12 13 14 15 16 17
000
FTUS42 KTBW 231700 RRA
TAFSRQ
TAF
KSRQ 231741Z 2318/2418 23006KT P6SM VCTS SCT030CB BKN070 BKN090
     FM232200 30005KT P6SM VCSH SCT040 BKN070
     FM240100 VRB03KT P6SM VCSH SCT025 BKN060
     FM240800 05004KT P6SM FEW020 SCT030 BKN150
     FM241500 07005KT P6SM VCSH SCT050 BKN090=

USA.gov is the U.S. government's official web portal to all federal, state and local government web resources and services.